createdAt,value
2022-09-06T00:01:12.802Z,3.90
2022-09-06T00:03:41.132Z,4.05
2022-09-06T00:06:15.405Z,3.85
2022-09-06T00:08:45.221Z,3.70
2022-09-06T00:11:14.328Z,3.40
2022-09-06T00:13:42.413Z,3.63
2022-09-06T00:16:16.488Z,3.58
2022-09-06T00:18:45.355Z,3.40
2022-09-06T00:21:25.221Z,3.30
2022-09-06T00:23:53.812Z,3.20
2022-09-06T00:26:22.871Z,3.00
2022-09-06T00:28:50.879Z,3.38
2022-09-06T00:31:21.798Z,3.10
2022-09-06T00:33:50.123Z,3.40
2022-09-06T00:36:18.909Z,3.30
2022-09-06T00:38:47.201Z,2.95
2022-09-06T00:41:16.508Z,3.42
2022-09-06T00:43:44.891Z,3.08
2022-09-06T00:46:19.374Z,3.25
2022-09-06T00:48:53.067Z,3.42
2022-09-06T00:51:23.811Z,3.17
2022-09-06T00:53:52.234Z,3.40
2022-09-06T00:56:20.761Z,3.17
2022-09-06T00:58:50.143Z,3.13
2022-09-06T01:01:18.819Z,3.15
2022-09-06T01:03:48.546Z,3.20
2022-09-06T01:06:20.051Z,3.08
2022-09-06T01:09:01.488Z,3.67
2022-09-06T01:11:50.840Z,3.58
2022-09-06T01:14:35.813Z,3.63
2022-09-06T01:17:22.791Z,3.53
2022-09-06T01:19:59.501Z,4.10
2022-09-06T01:22:57.104Z,4.30
2022-09-06T01:25:43.850Z,4.28
2022-09-06T01:28:33.417Z,4.03
2022-09-06T01:31:18.452Z,4.38
2022-09-06T01:34:07.686Z,3.95
2022-09-06T01:37:10.570Z,4.07
2022-09-06T01:39:40.549Z,4.20
2022-09-06T01:42:16.550Z,3.92
2022-09-06T01:45:07.601Z,3.90
2022-09-06T01:47:44.144Z,4.20
2022-09-06T01:50:32.921Z,3.65
2022-09-06T01:53:22.565Z,3.95
2022-09-06T01:56:13.223Z,3.47
2022-09-06T01:58:59.730Z,3.83
2022-09-06T02:01:46.207Z,3.67
2022-09-06T02:04:22.959Z,3.75
2022-09-06T02:06:55.971Z,3.45
2022-09-06T02:09:25.735Z,4.30
2022-09-06T02:11:59.951Z,3.83
2022-09-06T02:15:15.149Z,4.60
2022-09-06T02:18:11.125Z,4.28
2022-09-06T02:20:45.066Z,4.28
2022-09-06T02:23:15.098Z,4.20
2022-09-06T02:25:51.106Z,4.30
2022-09-06T02:28:19.313Z,4.20
2022-09-06T02:30:54.220Z,4.38
2022-09-06T02:33:26.485Z,4.38
2022-09-06T02:35:55.342Z,4.93
2022-09-06T02:38:26.711Z,4.78
2022-09-06T02:40:55.984Z,4.13
2022-09-06T02:43:23.849Z,4.53
2022-09-06T02:45:51.743Z,4.55
2022-09-06T02:48:19.595Z,4.82
2022-09-06T02:50:47.464Z,4.45
2022-09-06T02:53:16.634Z,5.20
2022-09-06T02:55:47.591Z,4.75
2022-09-06T02:58:15.906Z,5.07
2022-09-06T03:00:44.120Z,5.00
2022-09-06T03:03:12.210Z,4.80
2022-09-06T03:05:40.241Z,5.03
2022-09-06T03:08:08.459Z,4.88
2022-09-06T03:10:36.401Z,4.90
2022-09-06T03:13:04.361Z,5.80
2022-09-06T03:15:32.341Z,5.32
2022-09-06T03:18:03.114Z,5.05
2022-09-06T03:20:35.036Z,5.30
2022-09-06T03:23:05.473Z,5.18
2022-09-06T03:25:33.456Z,5.40
2022-09-06T03:28:01.775Z,5.93
2022-09-06T03:30:30.815Z,6.10
2022-09-06T03:33:02.651Z,7.32
2022-09-06T03:35:32.135Z,8.23
2022-09-06T03:37:59.995Z,7.97
2022-09-06T03:40:27.874Z,8.05
2022-09-06T03:42:55.648Z,8.55
2022-09-06T03:45:23.452Z,8.27
2022-09-06T03:47:51.599Z,8.40
2022-09-06T03:50:19.579Z,8.82
2022-09-06T03:52:47.393Z,8.77
2022-09-06T03:55:15.411Z,8.57
2022-09-06T03:57:43.329Z,8.13
2022-09-06T04:00:11.963Z,8.80
2022-09-06T04:02:39.853Z,8.50
2022-09-06T04:05:08.393Z,8.23
2022-09-06T04:07:38.179Z,8.65
2022-09-06T04:10:06.515Z,8.05
2022-09-06T04:12:34.981Z,7.75
2022-09-06T04:15:03.007Z,8.63
2022-09-06T04:17:31.079Z,8.10
2022-09-06T04:19:58.885Z,9.30
2022-09-06T04:22:26.766Z,8.13
2022-09-06T04:24:55.079Z,7.70
2022-09-06T04:27:22.944Z,8.65
2022-09-06T04:29:50.882Z,8.55
2022-09-06T04:32:18.704Z,8.75
2022-09-06T04:34:46.584Z,8.63
2022-09-06T04:37:17.926Z,8.27
2022-09-06T04:39:46.659Z,8.52
2022-09-06T04:42:14.618Z,8.57
2022-09-06T04:44:42.785Z,8.23
2022-09-06T04:47:15.813Z,9.15
2022-09-06T04:49:44.213Z,8.98
2022-09-06T04:52:14.765Z,8.95
2022-09-06T04:54:42.965Z,9.70
2022-09-06T04:57:10.986Z,9.70
2022-09-06T04:59:38.932Z,9.40
2022-09-06T05:02:06.863Z,9.20
2022-09-06T05:04:34.750Z,9.05
2022-09-06T05:07:04.974Z,9.00
2022-09-06T05:09:33.744Z,9.70
2022-09-06T05:12:02.242Z,9.77
2022-09-06T05:14:30.908Z,9.82
2022-09-06T05:16:59.061Z,9.40
2022-09-06T05:19:27.011Z,9.68
2022-09-06T05:21:55.042Z,10.13
2022-09-06T05:24:22.942Z,9.63
2022-09-06T05:26:50.760Z,10.07
2022-09-06T05:29:18.608Z,9.40
2022-09-06T05:31:46.492Z,9.65
2022-09-06T05:34:15.124Z,8.98
2022-09-06T05:36:43.760Z,9.13
2022-09-06T05:39:11.689Z,8.88
2022-09-06T05:41:39.669Z,9.40
2022-09-06T05:44:07.953Z,8.57
2022-09-06T05:46:43.047Z,8.80
2022-09-06T05:49:11.589Z,9.00
2022-09-06T05:51:40.142Z,9.50
2022-09-06T05:54:10.702Z,9.18
2022-09-06T05:56:38.484Z,8.93
2022-09-06T05:59:06.492Z,8.45
2022-09-06T06:01:34.576Z,8.25
2022-09-06T06:04:05.355Z,8.43
2022-09-06T06:06:34.698Z,8.48
2022-09-06T06:09:06.430Z,8.52
2022-09-06T06:11:34.339Z,8.85
2022-09-06T06:14:04.069Z,8.93
2022-09-06T06:16:31.990Z,8.98
2022-09-06T06:18:59.801Z,8.85
2022-09-06T06:21:30.095Z,9.80
2022-09-06T06:24:00.542Z,8.98
2022-09-06T06:26:31.164Z,8.23
2022-09-06T06:29:01.814Z,8.48
2022-09-06T06:31:31.479Z,7.82
2022-09-06T06:34:03.619Z,7.97
2022-09-06T06:36:33.882Z,7.90
2022-09-06T06:39:03.834Z,8.07
2022-09-06T06:41:33.007Z,7.93
2022-09-06T06:44:03.075Z,6.75
2022-09-06T06:46:39.291Z,6.80
2022-09-06T06:49:07.774Z,6.43
2022-09-06T06:51:37.817Z,7.15
2022-09-06T06:54:06.392Z,6.85
2022-09-06T06:56:37.455Z,6.25
2022-09-06T06:59:07.805Z,6.70
2022-09-06T07:01:37.480Z,6.68
2022-09-06T07:04:07.486Z,6.40
2022-09-06T07:12:31.790Z,5.65
2022-09-06T07:14:59.702Z,6.00
2022-09-06T07:17:27.950Z,5.65
2022-09-06T07:22:40.240Z,5.00
2022-09-06T07:25:13.340Z,4.70
2022-09-06T07:27:47.213Z,5.47
2022-09-06T07:30:16.417Z,5.45
2022-09-06T07:32:44.246Z,5.22
2022-09-06T07:35:13.790Z,5.00
2022-09-06T07:37:42.128Z,5.00
2022-09-06T07:40:11.261Z,5.03
2022-09-06T07:42:39.606Z,3.75
2022-09-06T07:45:08.360Z,3.75
2022-09-06T07:53:15.512Z,3.75
2022-09-06T07:55:45.877Z,4.50
2022-09-06T07:58:14.305Z,4.13
2022-09-06T08:00:42.381Z,4.00
2022-09-06T08:03:10.322Z,4.70
2022-09-06T08:11:18.842Z,4.45
2022-09-06T08:13:51.160Z,4.07
2022-09-06T08:16:20.217Z,4.70
2022-09-06T08:19:18.474Z,5.03
2022-09-06T08:21:46.740Z,5.18
2022-09-06T08:24:14.840Z,4.70
2022-09-06T08:26:43.181Z,4.80
2022-09-06T08:29:12.276Z,4.93
2022-09-06T08:31:44.772Z,4.93
2022-09-06T08:34:14.223Z,4.97
2022-09-06T08:36:43.587Z,4.78
2022-09-06T08:39:11.942Z,4.57
2022-09-06T08:41:55.301Z,4.55
2022-09-06T08:47:21.603Z,5.18
2022-09-06T08:49:54.664Z,4.85
2022-09-06T08:53:00.129Z,4.22
2022-09-06T08:55:37.921Z,4.72
2022-09-06T08:58:21.434Z,4.57
2022-09-06T09:00:58.689Z,4.50
2022-09-06T09:03:47.357Z,4.20
2022-09-06T09:06:15.680Z,3.63
2022-09-06T09:09:10.367Z,4.20
2022-09-06T09:11:42.788Z,3.67
2022-09-06T09:14:20.037Z,3.40
2022-09-06T09:16:58.868Z,4.25
2022-09-06T09:19:26.810Z,3.80
2022-09-06T09:21:55.540Z,4.03
2022-09-06T09:24:25.103Z,3.17
2022-09-06T09:27:12.864Z,2.78
2022-09-06T09:32:46.173Z,3.45
2022-09-06T09:35:17.341Z,3.33
2022-09-06T09:37:46.628Z,3.80
2022-09-06T09:40:28.799Z,3.28
2022-09-06T09:43:11.140Z,3.28
2022-09-06T09:45:39.172Z,3.25
2022-09-06T09:48:27.637Z,3.80
2022-09-06T09:50:56.230Z,4.38
2022-09-06T09:53:26.058Z,3.70
2022-09-06T09:55:59.192Z,4.43
2022-09-06T09:58:37.547Z,4.40
2022-09-06T10:01:18.148Z,5.10
2022-09-06T10:09:33.530Z,4.88
2022-09-06T10:12:01.647Z,5.45
2022-09-06T10:14:33.263Z,4.60
2022-09-06T10:17:01.582Z,4.40
2022-09-06T10:19:44.173Z,4.57
2022-09-06T10:22:31.700Z,4.22
2022-09-06T10:25:31.155Z,4.57
2022-09-06T10:28:16.633Z,4.40
2022-09-06T10:30:58.325Z,4.63
2022-09-06T10:33:53.904Z,4.65
2022-09-06T10:36:34.561Z,4.00
2022-09-06T10:39:21.341Z,3.90
2022-09-06T10:42:05.822Z,3.85
2022-09-06T10:44:58.040Z,4.35
2022-09-06T10:47:35.198Z,4.63
2022-09-06T10:50:05.238Z,4.85
2022-09-06T10:52:42.090Z,4.95
2022-09-06T10:55:15.758Z,5.60
2022-09-06T11:00:47.402Z,4.78
2022-09-06T11:06:14.036Z,4.22
2022-09-06T11:09:10.780Z,5.35
2022-09-06T11:11:47.623Z,4.60
2022-09-06T11:14:16.579Z,4.65
2022-09-06T11:17:10.148Z,4.10
2022-09-06T11:19:47.470Z,3.58
2022-09-06T11:22:45.775Z,4.13
2022-09-06T11:25:23.439Z,3.35
2022-09-06T11:27:58.065Z,3.65
2022-09-06T11:30:29.755Z,3.00
2022-09-06T11:33:25.874Z,3.00
2022-09-06T11:36:14.432Z,2.60
2022-09-06T11:38:43.305Z,2.70
2022-09-06T11:41:17.819Z,2.60
2022-09-06T11:43:51.897Z,2.60
2022-09-06T11:46:35.022Z,2.60
2022-09-06T11:49:32.171Z,2.78
2022-09-06T11:52:00.550Z,2.58
2022-09-06T11:54:44.540Z,2.75
2022-09-06T11:57:21.562Z,2.63
2022-09-06T12:00:00.551Z,2.38
2022-09-06T12:02:35.599Z,2.60
2022-09-06T12:05:07.189Z,3.15
2022-09-06T12:07:59.363Z,2.63
2022-09-06T12:10:30.583Z,2.28
2022-09-06T12:12:58.884Z,2.53
2022-09-06T12:15:45.450Z,2.22
2022-09-06T12:18:42.337Z,2.00
2022-09-06T12:21:31.428Z,2.00
2022-09-06T12:24:00.389Z,1.90
2022-09-06T12:26:51.969Z,1.83
2022-09-06T12:29:27.574Z,2.15
2022-09-06T12:31:58.807Z,1.90
2022-09-06T12:34:33.637Z,2.38
2022-09-06T12:37:08.064Z,2.00
2022-09-06T12:39:36.165Z,1.80
2022-09-06T12:42:12.818Z,1.83
2022-09-06T12:44:49.606Z,1.75
2022-09-06T12:47:34.036Z,1.80
2022-09-06T12:50:13.728Z,1.92
2022-09-06T12:52:53.626Z,1.73
2022-09-06T12:55:28.591Z,1.98
2022-09-06T12:57:58.799Z,1.65
2022-09-06T13:00:54.696Z,1.98
2022-09-06T13:03:41.105Z,2.00
2022-09-06T13:06:24.541Z,2.05
2022-09-06T13:08:57.215Z,1.95
2022-09-06T13:11:36.667Z,2.10
2022-09-06T13:14:23.867Z,2.25
2022-09-06T13:16:53.374Z,1.88
2022-09-06T13:19:38.240Z,2.25
2022-09-06T13:22:13.798Z,2.10
2022-09-06T13:24:47.736Z,2.10
2022-09-06T13:27:35.848Z,2.20
2022-09-06T13:30:08.816Z,2.05
2022-09-06T13:32:45.597Z,2.10
2022-09-06T13:35:29.339Z,1.95
2022-09-06T13:38:19.831Z,2.20
2022-09-06T13:41:11.840Z,2.10
2022-09-06T13:43:45.570Z,2.17
2022-09-06T13:46:13.806Z,2.35
2022-09-06T13:48:44.482Z,1.75
2022-09-06T13:51:12.773Z,2.08
2022-09-06T13:53:40.639Z,1.90
2022-09-06T13:56:16.490Z,2.03
2022-09-06T13:58:45.185Z,2.47
2022-09-06T14:01:14.237Z,2.00
2022-09-06T14:03:42.825Z,2.00
2022-09-06T14:06:11.105Z,1.90
2022-09-06T14:09:03.331Z,1.60
2022-09-06T14:11:28.101Z,2.22
2022-09-06T14:13:56.267Z,2.00
2022-09-06T14:16:24.920Z,1.90
2022-09-06T14:18:53.194Z,2.00
2022-09-06T14:21:21.323Z,1.90
2022-09-06T14:23:53.713Z,1.83
2022-09-06T14:26:23.294Z,2.10
2022-09-06T14:28:52.434Z,2.08
2022-09-06T14:31:23.715Z,1.80
2022-09-06T14:33:53.000Z,1.90
2022-09-06T14:36:23.345Z,1.80
2022-09-06T14:38:52.463Z,1.80
2022-09-06T14:41:21.422Z,1.98
2022-09-06T14:43:55.446Z,2.10
2022-09-06T14:49:02.165Z,1.73
2022-09-06T14:51:31.619Z,1.90
2022-09-06T14:54:04.461Z,2.22
2022-09-06T14:56:32.727Z,1.80
2022-09-06T14:59:01.062Z,1.80
2022-09-06T15:01:37.160Z,1.90
2022-09-06T15:04:28.369Z,1.80
2022-09-06T15:06:56.698Z,1.90
2022-09-06T15:09:25.292Z,1.63
2022-09-06T15:11:54.346Z,1.63
2022-09-06T15:14:29.576Z,1.75
2022-09-06T15:17:00.406Z,1.90
2022-09-06T15:19:30.122Z,1.65
2022-09-06T15:22:00.954Z,1.65
2022-09-06T15:24:29.635Z,1.73
2022-09-06T15:26:58.738Z,1.60
2022-09-06T15:29:27.471Z,1.65
2022-09-06T15:31:56.132Z,1.70
2022-09-06T15:34:26.430Z,1.77
2022-09-06T15:36:56.664Z,1.65
2022-09-06T15:39:25.203Z,1.58
2022-09-06T15:41:53.527Z,1.70
2022-09-06T15:44:23.310Z,1.80
2022-09-06T15:46:58.393Z,1.83
2022-09-06T15:49:29.456Z,2.13
2022-09-06T15:52:00.866Z,2.10
2022-09-06T15:54:48.183Z,1.80
2022-09-06T15:57:17.356Z,2.17
2022-09-06T15:59:46.038Z,2.10
2022-09-06T16:02:15.003Z,2.08
2022-09-06T16:04:43.681Z,2.10
2022-09-06T16:07:12.459Z,2.20
2022-09-06T16:09:40.723Z,2.13
2022-09-06T16:12:09.898Z,1.85
2022-09-06T16:14:38.577Z,2.08
2022-09-06T16:17:06.464Z,2.00
2022-09-06T16:19:35.088Z,2.00
2022-09-06T16:22:03.214Z,1.88
2022-09-06T16:24:31.534Z,2.20
2022-09-06T16:26:59.680Z,1.83
2022-09-06T16:29:30.024Z,2.10
2022-09-06T16:31:59.895Z,2.08
2022-09-06T16:34:28.621Z,2.08
2022-09-06T16:36:57.937Z,2.00
2022-09-06T16:39:28.242Z,2.40
2022-09-06T16:41:56.125Z,2.30
2022-09-06T16:44:24.095Z,2.35
2022-09-06T16:46:53.676Z,2.50
2022-09-06T16:49:22.873Z,2.75
2022-09-06T16:51:53.782Z,2.65
2022-09-06T16:54:21.962Z,2.38
2022-09-06T16:56:50.317Z,2.28
2022-09-06T16:59:18.672Z,2.55
2022-09-06T17:01:47.354Z,2.35
2022-09-06T17:04:15.829Z,2.10
2022-09-06T17:06:46.997Z,2.40
2022-09-06T17:09:18.709Z,2.00
2022-09-06T17:11:49.769Z,2.70
2022-09-06T17:14:18.028Z,2.10
2022-09-06T17:17:04.565Z,2.20
2022-09-06T17:19:41.667Z,2.40
2022-09-06T17:22:11.573Z,2.50
2022-09-06T17:24:40.716Z,2.60
2022-09-06T17:27:09.591Z,2.30
2022-09-06T17:29:39.942Z,2.30
2022-09-06T17:32:10.196Z,2.38
2022-09-06T17:34:40.351Z,2.63
2022-09-06T17:37:11.459Z,2.50
2022-09-06T17:39:40.408Z,2.65
2022-09-06T17:42:11.537Z,2.70
2022-09-06T17:44:39.582Z,2.42
2022-09-06T17:47:12.934Z,2.50
2022-09-06T17:49:44.539Z,2.47
2022-09-06T17:52:12.655Z,2.75
2022-09-06T17:54:40.680Z,2.42
2022-09-06T17:57:09.017Z,2.60
2022-09-06T17:59:38.253Z,2.85
2022-09-06T18:02:06.452Z,2.40
2022-09-06T18:04:35.159Z,2.70
2022-09-06T18:07:05.685Z,2.72
2022-09-06T18:09:33.994Z,2.65
2022-09-06T18:12:02.208Z,2.55
2022-09-06T18:14:30.172Z,2.75
2022-09-06T18:16:58.726Z,2.53
2022-09-06T18:19:27.984Z,2.50
2022-09-06T18:21:57.424Z,2.42
2022-09-06T18:24:25.656Z,2.67
2022-09-06T18:26:53.738Z,2.72
2022-09-06T18:29:21.791Z,3.15
2022-09-06T18:31:53.395Z,3.22
2022-09-06T18:34:21.929Z,3.10
2022-09-06T18:36:50.247Z,3.33
2022-09-06T18:39:19.279Z,2.65
2022-09-06T18:42:03.963Z,2.78
2022-09-06T18:44:33.651Z,3.13
2022-09-06T18:47:03.741Z,3.20
2022-09-06T18:49:33.776Z,3.30
2022-09-06T18:52:03.699Z,3.60
2022-09-06T18:54:32.445Z,3.72
2022-09-06T18:57:00.507Z,3.92
2022-09-06T18:59:28.523Z,3.38
2022-09-06T19:01:56.878Z,3.30
2022-09-06T19:04:25.086Z,3.65
2022-09-06T19:06:53.055Z,3.70
2022-09-06T19:09:21.377Z,4.55
2022-09-06T19:11:51.695Z,4.30
2022-09-06T19:14:20.264Z,5.63
2022-09-06T19:16:50.095Z,4.45
2022-09-06T19:19:18.449Z,4.43
2022-09-06T19:21:46.289Z,4.72
2022-09-06T19:24:16.034Z,5.00
2022-09-06T19:26:49.765Z,5.07
2022-09-06T19:29:21.272Z,5.50
2022-09-06T19:31:49.502Z,6.00
2022-09-06T19:34:20.589Z,6.57
2022-09-06T19:36:50.006Z,5.70
2022-09-06T19:39:18.506Z,6.30
2022-09-06T19:41:50.276Z,6.30
2022-09-06T19:44:20.714Z,6.00
2022-09-06T19:46:49.181Z,6.43
2022-09-06T19:49:20.078Z,6.13
2022-09-06T19:51:50.387Z,6.30
2022-09-06T19:54:18.992Z,6.25
2022-09-06T19:56:47.501Z,7.40
2022-09-06T19:59:16.501Z,7.03
2022-09-06T20:01:46.366Z,8.57
2022-09-06T20:04:15.693Z,7.35
2022-09-06T20:06:43.705Z,7.80
2022-09-06T20:09:12.094Z,8.38
2022-09-06T20:11:42.148Z,8.00
2022-09-06T20:14:11.496Z,8.40
2022-09-06T20:16:42.961Z,8.77
2022-09-06T20:19:12.306Z,8.27
2022-09-06T20:21:40.545Z,8.60
2022-09-06T20:24:08.857Z,8.38
2022-09-06T20:26:40.567Z,8.90
2022-09-06T20:29:08.877Z,9.30
2022-09-06T20:31:38.975Z,9.05
2022-09-06T20:34:16.126Z,10.07
2022-09-06T20:36:44.161Z,10.52
2022-09-06T20:39:12.378Z,10.43
2022-09-06T20:41:40.274Z,10.32
2022-09-06T20:44:08.768Z,9.93
2022-09-06T20:46:41.165Z,10.38
2022-09-06T20:49:09.264Z,9.80
2022-09-06T20:51:43.643Z,9.90
2022-09-06T20:56:41.700Z,9.88
2022-09-06T20:59:12.221Z,9.70
2022-09-06T21:01:43.039Z,8.73
2022-09-06T21:04:13.272Z,8.25
2022-09-06T21:06:45.760Z,9.45
2022-09-06T21:09:14.515Z,9.05
2022-09-06T21:11:43.254Z,9.65
2022-09-06T21:14:11.876Z,9.45
2022-09-06T21:16:40.724Z,10.02
2022-09-06T21:19:12.948Z,9.95
2022-09-06T21:21:41.240Z,11.00
2022-09-06T21:24:10.780Z,11.73
2022-09-06T21:26:38.988Z,12.18
2022-09-06T21:29:07.436Z,12.50
2022-09-06T21:31:37.477Z,14.60
2022-09-06T21:34:11.475Z,14.73
2022-09-06T21:36:43.125Z,15.45
2022-09-06T21:39:12.668Z,15.75
2022-09-06T21:41:42.303Z,15.35
2022-09-06T21:44:10.704Z,15.60
2022-09-06T21:46:40.043Z,16.05
2022-09-06T21:49:11.947Z,16.02
2022-09-06T21:51:42.773Z,16.17
2022-09-06T21:54:11.139Z,15.10
2022-09-06T21:56:40.141Z,15.35
2022-09-06T21:59:09.111Z,15.93
2022-09-06T22:01:38.441Z,15.13
2022-09-06T22:04:08.222Z,17.13
2022-09-06T22:06:37.642Z,15.50
2022-09-06T22:09:11.164Z,15.18
2022-09-06T22:11:41.479Z,14.82
2022-09-06T22:14:11.598Z,14.23
2022-09-06T22:16:40.680Z,15.20
2022-09-06T22:19:09.573Z,13.88
2022-09-06T22:21:38.771Z,14.85
2022-09-06T22:24:12.040Z,14.55
2022-09-06T22:26:41.738Z,14.10
2022-09-06T22:29:13.378Z,12.85
2022-09-06T22:31:41.748Z,13.43
2022-09-06T22:34:10.527Z,14.13
2022-09-06T22:36:39.275Z,13.77
2022-09-06T22:39:10.750Z,13.13
2022-09-06T22:41:39.192Z,14.00
2022-09-06T22:44:10.650Z,13.93
2022-09-06T22:46:39.609Z,13.15
2022-09-06T22:49:08.223Z,14.13
2022-09-06T22:51:36.086Z,12.43
2022-09-06T22:54:05.208Z,12.90
2022-09-06T22:56:33.677Z,12.60
2022-09-06T22:59:01.702Z,12.20
2022-09-06T23:01:29.624Z,12.52
2022-09-06T23:03:58.869Z,11.75
2022-09-06T23:06:26.774Z,11.70
2022-09-06T23:08:54.526Z,11.68
2022-09-06T23:11:22.511Z,12.70
2022-09-06T23:13:54.812Z,11.98
2022-09-06T23:16:22.688Z,12.25
2022-09-06T23:18:50.816Z,9.82
2022-09-06T23:21:21.724Z,10.20
2022-09-06T23:23:52.102Z,9.23
2022-09-06T23:26:27.499Z,8.80
2022-09-06T23:28:56.877Z,8.35
2022-09-06T23:31:28.178Z,8.02
2022-09-06T23:33:58.295Z,8.35
2022-09-06T23:36:27.583Z,7.40
2022-09-06T23:38:57.818Z,6.57
2022-09-06T23:41:25.792Z,7.20
2022-09-06T23:43:53.843Z,7.80
2022-09-06T23:46:21.785Z,9.43
2022-09-06T23:48:49.665Z,8.98
2022-09-06T23:51:17.782Z,9.35
2022-09-06T23:53:46.009Z,9.40
2022-09-06T23:56:14.028Z,9.35
2022-09-06T23:58:41.895Z,8.10
